Für Piloten

Informationen für Piloten zum Flugplatz Borken-Hoxfeld
Hier findest Du alle relevanten Informationen, die Du als Pilot benötigst, um Borken-Hoxfeld anzufliegen.

Flugplatz: Borken-Hoxfeld ICAO-Code: EDLY
Borken-Hoxfeld Info: 122,925 Mhz
GAFOR Gebiet: 32
Platzrunde: Motorflug; -> Südplatzrunde; Segelflug; -> Nordplatzrunde;
Landegebühr: z.Zt. 5,00 Euro
Platzhöhe: 48m üMSL
Pisten: 12/30 – 740 m x 30 m, GRAS
Betriebszeiten: PPR (in den Sommermonaten Mittagspause beachten)

 

Wetterforecast:

Available data for EDDL from the past 2 hours
DUESSELDORF
Metar
EDDL 161950Z 15009KT 9999 OVC011 03/01 Q1013 NOSIG

19:50 UTC

Wind: 150° 9kt

Visibility: 9999 m

Sky: OVC 1100 ft

Temp: 3 deg C / 37.4 deg F

Dewpoint: 1 deg C / 33.8 deg F

Pressure: 1013 hPa

TAF
TAF EDDL 161700Z 1618/1724 16010KT 9999 OVC012 TEMPO 1618/1702 BKN007 BECMG 1700/1703 BKN015 TEMPO 1708/1712 4000 -RA BKN010 BECMG 1710/1712 22010KT PROB30 TEMPO 1712/1717 BKN011

Alle obigen Informationen ersetzen nicht die vorgeschriebene, persönliche Flugvorbereitung.